createdAt,value
2019-03-01T00:02:14.187Z,4.28
2019-03-01T00:05:21.868Z,5.70
2019-03-01T00:08:09.695Z,5.67
2019-03-01T00:10:58.658Z,5.42
2019-03-01T00:13:52.147Z,4.08
2019-03-01T00:16:31.947Z,3.67
2019-03-01T00:19:30.058Z,4.15
2019-03-01T00:22:20.899Z,4.62
2019-03-01T00:25:18.873Z,5.15
2019-03-01T00:28:08.223Z,5.35
2019-03-01T00:31:06.288Z,4.47
2019-03-01T00:33:56.607Z,5.80
2019-03-01T00:36:42.647Z,4.65
2019-03-01T00:39:43.143Z,6.78
2019-03-01T00:42:26.310Z,4.50
2019-03-01T00:44:57.115Z,5.83
2019-03-01T00:47:27.907Z,6.87
2019-03-01T00:49:58.664Z,4.15
2019-03-01T00:52:29.744Z,6.40
2019-03-01T00:55:00.590Z,4.42
2019-03-01T00:57:31.470Z,3.95
2019-03-01T01:00:02.221Z,4.42
2019-03-01T01:02:33.012Z,5.08
2019-03-01T01:05:05.646Z,5.78
2019-03-01T01:07:36.731Z,5.20
2019-03-01T01:10:07.766Z,5.08
2019-03-01T01:12:38.823Z,4.95
2019-03-01T01:15:09.641Z,6.58
2019-03-01T01:17:40.422Z,5.10
2019-03-01T01:20:11.258Z,7.17
2019-03-01T01:22:42.041Z,4.75
2019-03-01T01:25:12.801Z,6.97
2019-03-01T01:27:43.573Z,5.25
2019-03-01T01:30:14.961Z,4.62
2019-03-01T01:32:45.748Z,5.95
2019-03-01T01:35:16.507Z,9.70
2019-03-01T01:37:47.610Z,3.27
2019-03-01T01:40:18.659Z,3.83
2019-03-01T01:42:49.433Z,4.35
2019-03-01T01:45:20.194Z,5.60
2019-03-01T01:47:51.283Z,3.00
2019-03-01T01:50:22.047Z,6.12
2019-03-01T01:52:52.825Z,3.92
2019-03-01T01:55:23.899Z,3.52
2019-03-01T01:57:54.940Z,7.20
2019-03-01T02:00:25.685Z,2.42
2019-03-01T02:02:56.482Z,4.62
2019-03-01T02:05:27.254Z,3.85
2019-03-01T02:07:58.047Z,7.00
2019-03-01T02:10:29.139Z,4.95
2019-03-01T02:12:59.934Z,4.53
2019-03-01T02:15:30.685Z,3.52
2019-03-01T02:18:01.470Z,4.17
2019-03-01T02:20:32.229Z,5.03
2019-03-01T02:23:03.014Z,5.17
2019-03-01T02:25:33.757Z,4.05
2019-03-01T02:28:04.556Z,3.90
2019-03-01T02:30:43.856Z,5.53
2019-03-01T02:33:14.633Z,5.03
2019-03-01T02:35:45.394Z,4.75
2019-03-01T02:38:16.207Z,3.50
2019-03-01T02:40:47.302Z,2.83
2019-03-01T02:43:18.070Z,5.65
2019-03-01T02:45:48.816Z,4.72
2019-03-01T02:48:19.616Z,2.50
2019-03-01T02:50:50.658Z,7.78
2019-03-01T02:53:21.707Z,4.42
2019-03-01T02:55:52.446Z,4.70
2019-03-01T02:58:23.302Z,7.67
2019-03-01T03:00:54.251Z,3.10
2019-03-01T03:03:25.354Z,4.72
2019-03-01T03:05:57.743Z,3.80
2019-03-01T03:08:28.539Z,3.60
2019-03-01T03:10:59.323Z,4.33
2019-03-01T03:13:30.346Z,3.12
2019-03-01T03:16:01.388Z,3.33
2019-03-01T03:18:32.480Z,5.60
2019-03-01T03:21:03.244Z,2.77
2019-03-01T03:23:34.076Z,4.45
2019-03-01T03:26:04.852Z,6.15
2019-03-01T03:28:35.667Z,7.70
2019-03-01T03:31:06.426Z,2.02
2019-03-01T03:33:37.198Z,3.55
2019-03-01T03:36:08.014Z,2.65
2019-03-01T03:38:39.152Z,4.58
2019-03-01T03:41:10.203Z,2.98
2019-03-01T03:43:41.000Z,3.00
2019-03-01T03:46:12.081Z,2.92
2019-03-01T03:48:42.883Z,4.92
2019-03-01T03:51:13.690Z,5.40
2019-03-01T03:53:44.803Z,4.47
2019-03-01T03:56:15.692Z,3.55
2019-03-01T03:58:46.783Z,5.33
2019-03-01T04:01:17.843Z,3.33
2019-03-01T04:03:48.693Z,2.55
2019-03-01T04:06:19.743Z,5.95
2019-03-01T04:08:50.534Z,4.17
2019-03-01T04:11:21.704Z,8.60
2019-03-01T04:13:52.495Z,8.90
2019-03-01T04:16:23.242Z,7.95
2019-03-01T04:18:54.050Z,4.37
2019-03-01T04:21:25.156Z,8.98
2019-03-01T04:23:56.205Z,5.75
2019-03-01T04:26:27.243Z,5.75
2019-03-01T04:28:58.055Z,6.72
2019-03-01T04:31:28.850Z,7.62
2019-03-01T04:33:59.644Z,9.55
2019-03-01T04:36:30.699Z,10.18
2019-03-01T04:39:01.500Z,7.17
2019-03-01T04:41:32.250Z,8.18
2019-03-01T04:44:03.535Z,7.05
2019-03-01T04:46:34.678Z,7.10
2019-03-01T04:49:05.469Z,7.85
2019-03-01T04:51:40.138Z,10.05
2019-03-01T04:54:08.728Z,8.48
2019-03-01T04:56:39.555Z,6.35
2019-03-01T04:59:10.473Z,8.10
2019-03-01T05:01:41.580Z,4.92
2019-03-01T05:04:12.706Z,7.95
2019-03-01T05:06:43.469Z,8.78
2019-03-01T05:09:14.258Z,6.92
2019-03-01T05:11:45.055Z,7.47
2019-03-01T05:14:15.822Z,3.33
2019-03-01T05:16:46.896Z,4.30
2019-03-01T05:19:17.663Z,6.55
2019-03-01T05:21:48.879Z,6.58
2019-03-01T05:24:19.630Z,2.83
2019-03-01T05:26:50.422Z,5.58
2019-03-01T05:29:21.499Z,1.62
2019-03-01T05:31:52.275Z,6.25
2019-03-01T05:34:23.042Z,4.45
2019-03-01T05:36:53.822Z,5.90
2019-03-01T05:39:24.588Z,5.33
2019-03-01T05:41:55.705Z,13.35
2019-03-01T05:44:26.471Z,4.87
2019-03-01T05:46:57.247Z,3.77
2019-03-01T05:49:28.320Z,6.25
2019-03-01T05:51:59.103Z,2.80
2019-03-01T05:54:30.194Z,4.72
2019-03-01T05:57:00.996Z,7.15
2019-03-01T05:59:31.760Z,2.22
2019-03-01T06:02:20.010Z,4.92
2019-03-01T06:04:54.426Z,3.60
2019-03-01T06:07:28.299Z,2.30
2019-03-01T06:10:08.106Z,5.42
2019-03-01T06:13:00.103Z,2.17
2019-03-01T06:15:52.226Z,4.08
2019-03-01T06:18:45.622Z,5.37
2019-03-01T06:21:22.459Z,2.75
2019-03-01T06:24:11.496Z,6.28
2019-03-01T06:26:51.355Z,4.58
2019-03-01T06:29:34.070Z,2.37
2019-03-01T06:32:30.327Z,4.35
2019-03-01T06:35:04.178Z,3.70
2019-03-01T06:37:40.973Z,4.42
2019-03-01T06:40:40.258Z,6.47
2019-03-01T06:43:32.382Z,6.22
2019-03-01T06:46:24.299Z,6.10
2019-03-01T06:48:56.982Z,7.30
2019-03-01T06:51:29.334Z,10.32
2019-03-01T06:54:00.189Z,9.00
2019-03-01T06:56:30.981Z,8.43
2019-03-01T06:59:01.758Z,12.35
2019-03-01T07:01:34.215Z,11.15
2019-03-01T07:04:06.621Z,12.63
2019-03-01T07:06:37.439Z,10.63
2019-03-01T07:09:08.189Z,15.38
2019-03-01T07:11:39.260Z,14.03
2019-03-01T07:14:10.287Z,13.22
2019-03-01T07:16:41.331Z,12.70
2019-03-01T07:19:12.110Z,12.93
2019-03-01T07:21:43.216Z,16.45
2019-03-01T07:24:14.003Z,16.67
2019-03-01T07:26:45.303Z,13.98
2019-03-01T07:29:16.347Z,16.75
2019-03-01T07:31:47.500Z,15.50
2019-03-01T07:34:18.289Z,21.48
2019-03-01T07:36:49.101Z,16.48
2019-03-01T07:39:19.870Z,17.48
2019-03-01T07:41:50.677Z,18.75
2019-03-01T07:44:21.796Z,24.87
2019-03-01T07:46:54.081Z,19.95
2019-03-01T07:49:25.136Z,22.87
2019-03-01T07:51:55.952Z,24.47
2019-03-01T07:54:26.991Z,31.82
2019-03-01T07:56:58.051Z,30.85
2019-03-01T07:59:33.484Z,29.30
2019-03-01T08:02:04.068Z,28.95
2019-03-01T08:04:33.834Z,27.10
2019-03-01T08:07:04.641Z,25.75
2019-03-01T08:09:36.365Z,28.45
2019-03-01T08:12:08.207Z,29.60
2019-03-01T08:14:39.055Z,27.62
2019-03-01T08:17:10.191Z,28.57
2019-03-01T08:19:40.949Z,31.37
2019-03-01T08:22:11.767Z,30.02
2019-03-01T08:24:46.519Z,39.35
2019-03-01T08:27:15.678Z,34.53
2019-03-01T08:29:46.490Z,41.53
2019-03-01T08:32:17.559Z,43.70
2019-03-01T08:34:49.832Z,44.60
2019-03-01T08:37:21.183Z,44.95
2019-03-01T08:39:51.982Z,51.25
2019-03-01T08:42:23.088Z,45.20
2019-03-01T08:47:45.779Z,44.42
2019-03-01T08:48:11.135Z,47.73
2019-03-01T08:50:32.219Z,51.65
2019-03-01T08:53:03.370Z,49.48
2019-03-01T08:55:35.572Z,52.08
2019-03-01T08:58:07.130Z,57.00
2019-03-01T09:00:41.126Z,59.25
2019-03-01T09:03:23.611Z,62.05
2019-03-01T09:05:54.648Z,66.67
2019-03-01T09:08:26.422Z,63.58
2019-03-01T09:10:57.430Z,66.87
2019-03-01T09:13:28.229Z,66.95
2019-03-01T09:15:59.339Z,68.90
2019-03-01T09:18:30.114Z,70.40
2019-03-01T09:21:05.503Z,66.90
2019-03-01T09:23:34.002Z,70.40
2019-03-01T09:26:05.250Z,81.55
2019-03-01T09:28:39.523Z,81.92
2019-03-01T09:31:08.782Z,77.30
2019-03-01T09:33:39.552Z,83.90
2019-03-01T09:36:14.472Z,84.00
2019-03-01T09:38:44.762Z,84.32
2019-03-01T09:41:15.814Z,87.05
2019-03-01T09:43:46.614Z,82.92
2019-03-01T09:46:17.392Z,81.10
2019-03-01T09:48:49.512Z,84.05
2019-03-01T09:51:20.671Z,87.20
2019-03-01T09:53:51.450Z,82.20
2019-03-01T09:56:24.316Z,79.05
2019-03-01T09:58:55.378Z,77.45
2019-03-01T10:01:26.423Z,78.20
2019-03-01T10:03:57.667Z,81.82
2019-03-01T10:06:37.654Z,82.80
2019-03-01T10:09:01.202Z,87.50
2019-03-01T10:11:32.250Z,85.55
2019-03-01T10:14:03.374Z,92.10
2019-03-01T10:16:34.163Z,91.67
2019-03-01T10:19:05.071Z,98.30
2019-03-01T10:21:35.842Z,90.85
2019-03-01T10:24:06.654Z,96.32
2019-03-01T10:26:37.470Z,96.97
2019-03-01T10:29:08.513Z,93.37
2019-03-01T10:31:39.660Z,89.77
2019-03-01T10:34:10.464Z,82.57
2019-03-01T10:36:41.276Z,82.02
2019-03-01T10:39:13.700Z,82.02
2019-03-01T10:41:44.518Z,75.97
2019-03-01T10:44:15.286Z,75.85
2019-03-01T10:46:46.438Z,81.20
2019-03-01T10:49:17.217Z,84.22
2019-03-01T10:51:48.015Z,82.45
2019-03-01T10:54:18.406Z,65.00
2019-03-01T10:56:49.482Z,68.15
2019-03-01T10:59:20.287Z,59.53
2019-03-01T11:01:51.058Z,64.17
2019-03-01T11:04:22.207Z,62.30
2019-03-01T11:06:53.926Z,61.08
2019-03-01T11:09:24.730Z,61.35
2019-03-01T11:11:55.545Z,57.73
2019-03-01T11:14:26.331Z,59.85
2019-03-01T11:16:57.141Z,62.10
2019-03-01T11:19:27.682Z,56.30
2019-03-01T11:21:58.202Z,55.57
2019-03-01T11:24:28.970Z,53.95
2019-03-01T11:27:00.062Z,57.30
2019-03-01T11:29:30.832Z,58.63
2019-03-01T11:32:01.654Z,60.08
2019-03-01T11:34:32.421Z,58.60
2019-03-01T11:37:04.574Z,58.80
2019-03-01T11:39:35.366Z,59.70
2019-03-01T11:42:06.162Z,52.55
2019-03-01T11:44:36.957Z,56.58
2019-03-01T11:47:08.006Z,57.70
2019-03-01T11:49:38.821Z,51.88
2019-03-01T11:52:09.991Z,58.55
2019-03-01T11:54:41.041Z,51.80
2019-03-01T11:57:12.103Z,45.50
2019-03-01T11:59:43.227Z,48.80
2019-03-01T12:02:14.023Z,47.95
2019-03-01T12:04:44.830Z,48.83
2019-03-01T12:07:15.946Z,45.65
2019-03-01T12:09:46.763Z,43.15
2019-03-01T12:12:16.963Z,45.83
2019-03-01T12:14:47.773Z,41.75
2019-03-01T12:17:18.570Z,46.30
2019-03-01T12:19:49.635Z,46.83
2019-03-01T12:22:20.686Z,42.88
2019-03-01T12:24:51.507Z,44.53
2019-03-01T12:27:22.558Z,49.55
2019-03-01T12:29:53.096Z,44.30
2019-03-01T12:32:23.965Z,47.13
2019-03-01T12:34:54.197Z,41.13
2019-03-01T12:37:24.981Z,48.33
2019-03-01T12:39:55.815Z,43.75
2019-03-01T12:42:26.602Z,44.55
2019-03-01T12:44:57.723Z,43.38
2019-03-01T12:47:27.920Z,43.67
2019-03-01T12:50:00.126Z,45.10
2019-03-01T12:52:31.111Z,43.10
2019-03-01T12:55:02.207Z,47.17
2019-03-01T12:57:33.343Z,45.00
2019-03-01T13:00:07.398Z,48.13
2019-03-01T13:02:37.625Z,50.40
2019-03-01T13:05:11.346Z,42.05
2019-03-01T13:07:42.825Z,43.80
2019-03-01T13:10:22.589Z,47.65
2019-03-01T13:12:54.659Z,47.73
2019-03-01T13:15:26.002Z,50.55
2019-03-01T13:17:56.798Z,49.85
2019-03-01T13:20:29.826Z,47.25
2019-03-01T13:23:00.914Z,50.60
2019-03-01T13:25:33.358Z,51.25
2019-03-01T13:28:04.238Z,50.45
2019-03-01T13:30:35.818Z,53.43
2019-03-01T13:33:06.912Z,49.53
2019-03-01T13:35:37.688Z,54.23
2019-03-01T13:38:08.489Z,54.00
2019-03-01T13:40:39.510Z,52.53
2019-03-01T13:43:10.562Z,51.30
2019-03-01T13:45:41.338Z,52.10
2019-03-01T13:48:15.795Z,49.05
2019-03-01T13:50:45.631Z,47.03
2019-03-01T13:53:16.421Z,52.53
2019-03-01T13:55:47.207Z,49.80
2019-03-01T13:58:18.078Z,51.95
2019-03-01T14:00:49.618Z,56.37
2019-03-01T14:03:23.706Z,50.17
2019-03-01T14:05:54.701Z,49.60
2019-03-01T14:08:26.317Z,51.73
2019-03-01T14:10:57.382Z,46.08
2019-03-01T14:13:29.304Z,43.58
2019-03-01T14:16:00.226Z,46.35
2019-03-01T14:18:33.335Z,46.15
2019-03-01T14:21:04.559Z,46.40
2019-03-01T14:23:35.374Z,44.63
2019-03-01T14:26:06.155Z,42.20
2019-03-01T14:28:38.109Z,40.55
2019-03-01T14:31:12.129Z,38.50
2019-03-01T14:33:42.802Z,33.33
2019-03-01T14:36:13.619Z,37.75
2019-03-01T14:38:44.676Z,33.13
2019-03-01T14:41:15.485Z,35.98
2019-03-01T14:43:46.567Z,29.57
2019-03-01T14:46:20.433Z,31.02
2019-03-01T14:48:50.490Z,27.80
2019-03-01T14:51:21.302Z,24.70
2019-03-01T14:53:52.102Z,26.42
2019-03-01T14:56:26.554Z,29.20
2019-03-01T14:59:06.434Z,24.87
2019-03-01T15:01:40.563Z,23.22
2019-03-01T15:04:11.347Z,25.10
2019-03-01T15:06:42.426Z,19.75
2019-03-01T15:09:13.370Z,16.15
2019-03-01T15:11:45.298Z,19.52
2019-03-01T15:14:16.164Z,16.20
2019-03-01T15:16:47.323Z,18.07
2019-03-01T15:19:18.132Z,22.62
2019-03-01T15:21:48.952Z,28.32
2019-03-01T15:24:20.043Z,28.65
2019-03-01T15:26:50.271Z,31.77
2019-03-01T15:29:20.798Z,34.13
2019-03-01T15:31:54.800Z,34.77
2019-03-01T15:34:25.156Z,38.42
2019-03-01T15:36:56.126Z,40.07
2019-03-01T15:39:27.430Z,46.67
2019-03-01T15:41:57.977Z,44.23
2019-03-01T15:44:28.179Z,39.30
2019-03-01T15:46:58.723Z,53.93
2019-03-01T15:49:29.266Z,49.37
2019-03-01T15:51:59.508Z,52.60
2019-03-01T15:54:32.493Z,48.53
2019-03-01T15:57:01.983Z,42.93
2019-03-01T15:59:32.515Z,54.77
2019-03-01T16:02:02.748Z,50.50
2019-03-01T16:04:33.671Z,53.57
2019-03-01T16:07:05.127Z,51.77
2019-03-01T16:09:35.330Z,50.07
2019-03-01T16:12:05.567Z,45.67
2019-03-01T16:14:36.023Z,51.00
2019-03-01T16:17:06.638Z,52.20
2019-03-01T16:19:37.193Z,49.90
2019-03-01T16:22:07.416Z,45.87
2019-03-01T16:24:37.614Z,40.10
2019-03-01T16:27:08.627Z,38.90
2019-03-01T16:29:42.213Z,32.37
2019-03-01T16:32:11.715Z,33.90
2019-03-01T16:34:42.394Z,32.20
2019-03-01T16:37:12.710Z,29.93
2019-03-01T16:39:42.948Z,28.20
2019-03-01T16:42:14.590Z,33.33
2019-03-01T16:44:45.467Z,32.73
2019-03-01T16:47:15.997Z,29.50
2019-03-01T16:49:46.230Z,29.07
2019-03-01T16:52:16.438Z,26.20
2019-03-01T16:54:47.541Z,26.10
2019-03-01T16:57:18.713Z,28.60
2019-03-01T16:59:49.023Z,28.83
2019-03-01T17:02:19.223Z,28.53
2019-03-01T17:04:49.447Z,28.87
2019-03-01T17:07:21.480Z,30.27
2019-03-01T17:09:54.888Z,32.13
2019-03-01T17:12:23.761Z,29.67
2019-03-01T17:14:54.011Z,29.80
2019-03-01T17:17:24.374Z,31.37
2019-03-01T17:19:54.601Z,33.33
2019-03-01T17:22:26.415Z,33.13
2019-03-01T17:24:57.254Z,28.53
2019-03-01T17:27:27.470Z,29.67
2019-03-01T17:29:57.699Z,32.07
2019-03-01T17:32:27.930Z,31.10
2019-03-01T17:35:00.979Z,32.17
2019-03-01T17:37:32.377Z,29.17
2019-03-01T17:40:02.742Z,28.83
2019-03-01T17:42:32.958Z,30.77
2019-03-01T17:45:04.017Z,26.20
2019-03-01T17:47:34.499Z,33.87
2019-03-01T17:50:08.630Z,33.87
2019-03-01T17:52:38.233Z,31.13
2019-03-01T17:55:10.870Z,29.20
2019-03-01T17:57:41.171Z,33.80
2019-03-01T18:00:21.778Z,33.90
2019-03-01T18:02:52.101Z,31.83
2019-03-01T18:05:22.426Z,33.67
2019-03-01T18:07:52.663Z,32.73
2019-03-01T18:10:23.111Z,31.37
2019-03-01T18:12:56.145Z,32.23
2019-03-01T18:15:25.411Z,31.10
2019-03-01T18:17:55.930Z,36.50
2019-03-01T18:20:26.463Z,30.60
2019-03-01T18:22:59.332Z,34.80
2019-03-01T18:25:28.590Z,32.70
2019-03-01T18:27:58.816Z,31.63
2019-03-01T18:30:34.013Z,29.87
2019-03-01T18:33:04.553Z,30.77
2019-03-01T18:35:34.793Z,30.30
2019-03-01T18:38:05.074Z,25.00
2019-03-01T18:40:35.641Z,27.17
2019-03-01T18:43:05.866Z,24.70
2019-03-01T18:45:38.447Z,28.40
2019-03-01T18:48:08.885Z,31.87
2019-03-01T18:50:40.230Z,25.57
2019-03-01T18:53:10.450Z,29.07
2019-03-01T18:55:40.660Z,24.67
2019-03-01T18:58:14.133Z,27.33
2019-03-01T19:00:45.418Z,31.40
2019-03-01T19:03:15.951Z,30.07
2019-03-01T19:05:46.149Z,31.00
2019-03-01T19:08:16.375Z,28.93
2019-03-01T19:10:53.928Z,29.63
2019-03-01T19:13:20.753Z,34.57
2019-03-01T19:15:54.357Z,29.90
2019-03-01T19:18:22.600Z,35.00
2019-03-01T19:20:54.082Z,36.20
2019-03-01T19:23:25.812Z,35.40
2019-03-01T19:25:57.921Z,33.77
2019-03-01T19:28:28.447Z,39.10
2019-03-01T19:30:58.962Z,40.30
2019-03-01T19:33:29.190Z,39.53
2019-03-01T19:36:00.658Z,37.07
2019-03-01T19:38:31.342Z,38.43
2019-03-01T19:41:01.967Z,38.27
2019-03-01T19:43:32.231Z,37.87
2019-03-01T19:46:02.410Z,44.70
2019-03-01T19:48:34.417Z,38.33
2019-03-01T19:51:04.563Z,40.83
2019-03-01T19:53:34.838Z,41.63
2019-03-01T19:56:05.334Z,40.00
2019-03-01T19:58:35.852Z,43.70
2019-03-01T20:01:06.071Z,39.13
2019-03-01T20:03:36.289Z,44.23
2019-03-01T20:06:08.801Z,39.70
2019-03-01T20:08:38.846Z,39.40
2019-03-01T20:11:09.132Z,43.83
2019-03-01T20:13:39.350Z,41.37
2019-03-01T20:16:10.177Z,37.20
2019-03-01T20:18:41.781Z,37.30
2019-03-01T20:21:12.315Z,32.97
2019-03-01T20:23:42.514Z,37.70
2019-03-01T20:26:14.247Z,33.43
2019-03-01T20:28:47.645Z,32.70
2019-03-01T20:31:16.551Z,34.23
2019-03-01T20:33:47.085Z,33.47
2019-03-01T20:36:17.685Z,32.73
2019-03-01T20:38:48.965Z,31.40
2019-03-01T20:41:19.181Z,33.87
2019-03-01T20:43:49.397Z,32.37
2019-03-01T20:46:19.630Z,31.10
2019-03-01T20:48:49.826Z,33.90
2019-03-01T20:51:26.317Z,31.60
2019-03-01T20:53:52.258Z,30.90
2019-03-01T20:56:22.487Z,32.17
2019-03-01T20:58:52.702Z,28.53
2019-03-01T21:01:22.934Z,31.87
2019-03-01T21:03:53.471Z,29.20
2019-03-01T21:06:23.694Z,30.47
2019-03-01T21:08:53.927Z,36.20
2019-03-01T21:11:25.528Z,26.57
2019-03-01T21:13:56.050Z,27.30
2019-03-01T21:16:26.265Z,30.00
2019-03-01T21:18:56.475Z,32.40
2019-03-01T21:21:28.921Z,30.60
2019-03-01T21:23:58.651Z,26.17
2019-03-01T21:26:28.862Z,26.33
2019-03-01T21:28:59.398Z,29.20
2019-03-01T21:31:31.801Z,23.63
2019-03-01T21:34:02.670Z,26.97
2019-03-01T21:36:34.036Z,23.80
2019-03-01T21:39:05.581Z,24.30
2019-03-01T21:41:35.850Z,25.60
2019-03-01T21:44:10.188Z,23.83
2019-03-01T21:46:37.975Z,21.73
2019-03-01T21:49:08.225Z,25.77
2019-03-01T21:51:38.716Z,21.07
2019-03-01T21:54:12.585Z,20.93
2019-03-01T21:56:55.512Z,23.70
2019-03-01T21:59:13.685Z,19.47
2019-03-01T22:01:45.409Z,17.67
2019-03-01T22:04:15.626Z,22.37
2019-03-01T22:06:45.821Z,20.10
2019-03-01T22:09:16.422Z,21.97
2019-03-01T22:11:49.216Z,20.17
2019-03-01T22:14:19.110Z,23.30
2019-03-01T22:16:49.310Z,22.53
2019-03-01T22:19:19.546Z,22.47
2019-03-01T22:21:49.750Z,20.83
2019-03-01T22:24:20.214Z,22.80
2019-03-01T22:26:50.441Z,22.10
2019-03-01T22:29:20.978Z,21.63
2019-03-01T22:31:51.202Z,25.53
2019-03-01T22:34:21.442Z,25.73
2019-03-01T22:36:52.896Z,21.93
2019-03-01T22:39:23.346Z,22.97
2019-03-01T22:41:53.942Z,24.10
2019-03-01T22:44:24.483Z,26.30
2019-03-01T22:46:57.880Z,23.40
2019-03-01T22:49:28.656Z,21.13
2019-03-01T22:51:58.527Z,23.73
2019-03-01T22:54:28.958Z,22.00
2019-03-01T22:56:59.186Z,22.50
2019-03-01T22:59:29.718Z,25.77
2019-03-01T23:02:04.439Z,25.10
2019-03-01T23:04:33.886Z,28.17
2019-03-01T23:07:04.110Z,25.47
2019-03-01T23:09:34.310Z,22.00
2019-03-01T23:12:07.827Z,22.33
2019-03-01T23:14:36.474Z,23.23
2019-03-01T23:17:07.024Z,22.77
2019-03-01T23:19:39.169Z,21.90
2019-03-01T23:22:10.916Z,25.27
2019-03-01T23:24:41.467Z,25.10
2019-03-01T23:27:11.696Z,25.53
2019-03-01T23:29:41.885Z,25.93
2019-03-01T23:32:15.439Z,24.90
2019-03-01T23:34:44.388Z,27.17
2019-03-01T23:37:14.965Z,22.33
2019-03-01T23:39:45.172Z,23.47
2019-03-01T23:42:17.352Z,25.53
2019-03-01T23:44:47.893Z,22.13
2019-03-01T23:47:18.427Z,26.20
2019-03-01T23:49:48.653Z,24.33
2019-03-01T23:52:19.581Z,23.27
2019-03-01T23:54:51.056Z,24.53
2019-03-01T23:57:21.246Z,25.57
2019-03-01T23:59:51.485Z,26.10
